createdAt,value
2023-05-05T00:01:12.096Z,13.46
2023-05-05T00:06:14.920Z,13.27
2023-05-05T00:11:19.365Z,13.28
2023-05-05T00:16:23.300Z,13.21
2023-05-05T00:21:27.847Z,13.23
2023-05-05T00:26:31.973Z,13.31
2023-05-05T00:31:35.044Z,13.28
2023-05-05T00:36:37.892Z,13.24
2023-05-05T00:41:42.472Z,13.29
2023-05-05T00:46:45.426Z,13.14
2023-05-05T00:51:48.665Z,13.18
2023-05-05T00:56:53.397Z,13.08
2023-05-05T01:01:56.467Z,13.11
2023-05-05T01:07:14.672Z,13.15
2023-05-05T01:12:28.298Z,13.17
2023-05-05T01:17:40.024Z,13.24
2023-05-05T01:22:47.206Z,13.18
2023-05-05T01:28:01.959Z,13.31
2023-05-05T01:33:09.493Z,13.35
2023-05-05T01:38:17.407Z,13.21
2023-05-05T01:43:23.923Z,13.18
2023-05-05T01:48:29.792Z,13.10
2023-05-05T01:53:34.310Z,13.13
2023-05-05T01:58:38.595Z,13.10
2023-05-05T02:03:43.784Z,13.03
2023-05-05T02:08:48.245Z,13.02
2023-05-05T02:13:52.731Z,12.98
2023-05-05T02:19:04.583Z,12.90
2023-05-05T02:24:08.178Z,12.82
2023-05-05T02:29:17.488Z,12.71
2023-05-05T02:34:26.685Z,12.53
2023-05-05T02:39:33.979Z,12.45
2023-05-05T02:44:43.473Z,12.38
2023-05-05T02:49:49.340Z,12.28
2023-05-05T02:54:52.752Z,12.20
2023-05-05T03:00:05.834Z,12.16
2023-05-05T03:05:16.270Z,12.07
2023-05-05T03:10:26.731Z,12.05
2023-05-05T03:15:33.696Z,11.97
2023-05-05T03:20:39.991Z,11.97
2023-05-05T03:25:46.243Z,12.00
2023-05-05T03:30:57.499Z,11.97
2023-05-05T03:36:03.261Z,12.07
2023-05-05T03:41:06.318Z,12.11
2023-05-05T03:46:10.269Z,12.25
2023-05-05T03:51:15.473Z,12.39
2023-05-05T03:56:18.667Z,12.50
2023-05-05T04:01:21.626Z,12.53
2023-05-05T04:06:26.271Z,12.63
2023-05-05T04:11:29.196Z,12.60
2023-05-05T04:16:32.965Z,12.58
2023-05-05T04:21:37.663Z,12.46
2023-05-05T04:26:41.486Z,12.43
2023-05-05T04:31:44.535Z,12.49
2023-05-05T04:36:49.097Z,12.55
2023-05-05T04:41:52.679Z,12.44
2023-05-05T04:46:55.570Z,12.33
2023-05-05T04:51:59.878Z,12.39
2023-05-05T04:57:03.964Z,12.33
2023-05-05T05:02:06.961Z,12.52
2023-05-05T05:07:11.166Z,12.60
2023-05-05T05:12:14.414Z,12.63
2023-05-05T05:17:17.245Z,12.93
2023-05-05T05:22:21.473Z,13.22
2023-05-05T05:27:24.391Z,13.53
2023-05-05T05:32:29.472Z,13.65
2023-05-05T05:37:35.048Z,13.44
2023-05-05T05:42:39.996Z,12.35
2023-05-05T05:47:43.281Z,11.57
2023-05-05T05:52:48.382Z,11.63
2023-05-05T05:57:51.643Z,11.84
2023-05-05T06:02:56.052Z,12.17
2023-05-05T06:08:03.907Z,12.58
2023-05-05T06:13:09.674Z,12.94
2023-05-05T06:18:16.409Z,13.39
2023-05-05T06:23:20.770Z,13.84
2023-05-05T06:28:28.660Z,14.13
2023-05-05T06:33:31.562Z,14.34
2023-05-05T06:38:35.693Z,14.63
2023-05-05T06:43:38.592Z,14.55
2023-05-05T06:48:47.442Z,14.32
2023-05-05T06:53:51.636Z,13.98
2023-05-05T06:58:54.387Z,12.95
2023-05-05T07:03:57.257Z,12.12
2023-05-05T07:09:01.458Z,12.34
2023-05-05T07:14:04.331Z,12.61
2023-05-05T07:19:07.145Z,12.94
2023-05-05T07:24:11.304Z,13.24
2023-05-05T07:29:14.215Z,13.43
2023-05-05T07:34:17.009Z,13.75
2023-05-05T07:39:21.124Z,14.30
2023-05-05T07:44:23.901Z,14.96
2023-05-05T07:49:26.856Z,15.20
2023-05-05T07:54:30.974Z,15.22
2023-05-05T07:59:34.541Z,15.36
2023-05-05T08:04:37.330Z,15.30
2023-05-05T08:09:41.786Z,15.65
2023-05-05T08:14:44.588Z,16.58
2023-05-05T08:19:47.362Z,16.96
2023-05-05T08:24:51.533Z,17.15
2023-05-05T08:29:54.297Z,17.15
2023-05-05T08:34:57.552Z,17.08
2023-05-05T08:40:01.679Z,17.47
2023-05-05T08:45:04.852Z,17.38
2023-05-05T08:50:11.331Z,17.36
2023-05-05T08:55:21.915Z,17.65
2023-05-05T09:00:26.458Z,18.32
2023-05-05T09:05:29.421Z,19.16
2023-05-05T09:10:34.484Z,19.06
2023-05-05T09:15:38.990Z,19.09
2023-05-05T09:20:42.646Z,18.94
2023-05-05T09:25:48.832Z,19.60
2023-05-05T09:30:51.662Z,18.99
2023-05-05T09:35:56.347Z,19.53
2023-05-05T09:41:00.509Z,19.97
2023-05-05T09:46:07.750Z,20.46
2023-05-05T09:51:10.771Z,21.69
2023-05-05T09:56:15.103Z,22.29
2023-05-05T10:01:24.006Z,22.82
2023-05-05T10:06:41.118Z,22.96
2023-05-05T10:11:47.271Z,22.97
2023-05-05T10:16:51.597Z,24.02
2023-05-05T10:21:55.630Z,23.48
2023-05-05T10:27:02.515Z,23.90
2023-05-05T10:32:33.573Z,23.46
2023-05-05T10:37:34.623Z,23.78
2023-05-05T10:42:40.477Z,24.26
2023-05-05T10:47:44.351Z,24.84
2023-05-05T10:52:59.491Z,25.24
2023-05-05T10:58:03.622Z,25.76
2023-05-05T11:03:24.260Z,26.17
2023-05-05T11:08:27.866Z,26.26
2023-05-05T11:13:32.665Z,26.03
2023-05-05T11:18:37.402Z,26.22
2023-05-05T11:23:40.198Z,25.31
2023-05-05T11:28:59.065Z,24.69
2023-05-05T11:34:28.033Z,23.51
2023-05-05T11:39:42.023Z,24.15
2023-05-05T11:44:46.735Z,24.99
2023-05-05T11:49:50.610Z,23.38
2023-05-05T11:54:54.004Z,23.95
2023-05-05T12:00:00.395Z,23.17
2023-05-05T12:05:03.475Z,23.37
2023-05-05T12:10:07.878Z,23.54
2023-05-05T12:15:12.642Z,23.72
2023-05-05T12:20:15.402Z,23.12
2023-05-05T12:25:18.239Z,22.39
2023-05-05T12:30:24.116Z,22.50
2023-05-05T12:35:27.070Z,24.09
2023-05-05T12:40:47.056Z,24.97
2023-05-05T12:45:59.923Z,26.26
2023-05-05T12:51:17.240Z,26.02
2023-05-05T12:56:34.069Z,25.29
2023-05-05T13:01:49.193Z,25.09
2023-05-05T13:07:09.969Z,24.67
2023-05-05T13:12:12.749Z,24.72
2023-05-05T13:17:16.874Z,24.51
2023-05-05T13:22:19.642Z,24.06
2023-05-05T13:27:22.388Z,23.49
2023-05-05T13:32:26.577Z,23.53
2023-05-05T13:37:29.314Z,23.06
2023-05-05T13:42:32.067Z,23.35
2023-05-05T13:47:36.371Z,23.30
2023-05-05T13:52:39.451Z,23.13
2023-05-05T13:57:42.239Z,23.00
2023-05-05T14:02:46.619Z,22.88
2023-05-05T14:07:49.387Z,22.55
2023-05-05T14:12:52.812Z,22.13
2023-05-05T14:17:57.046Z,21.97
2023-05-05T14:22:59.880Z,21.49
2023-05-05T14:28:02.651Z,21.30
2023-05-05T14:33:06.870Z,21.05
2023-05-05T14:38:09.781Z,20.39
2023-05-05T14:43:12.600Z,19.88
2023-05-05T14:48:18.030Z,18.18
2023-05-05T14:53:20.770Z,17.09
2023-05-05T14:58:24.609Z,12.73
2023-05-05T15:03:28.944Z,11.88
2023-05-05T15:08:31.800Z,12.24
2023-05-05T15:13:35.390Z,12.15
2023-05-05T15:18:39.462Z,12.28
2023-05-05T15:23:42.184Z,12.83
2023-05-05T15:28:44.918Z,13.14
2023-05-05T15:33:49.908Z,13.40
2023-05-05T15:38:52.659Z,13.87
2023-05-05T15:43:55.474Z,14.34
2023-05-05T15:48:59.629Z,14.63
2023-05-05T15:54:02.451Z,14.92
2023-05-05T15:59:05.278Z,15.00
2023-05-05T16:04:09.363Z,15.29
2023-05-05T16:09:12.113Z,15.35
2023-05-05T16:14:14.857Z,15.30
2023-05-05T16:19:18.987Z,15.36
2023-05-05T16:24:22.369Z,15.32
2023-05-05T16:29:25.215Z,15.28
2023-05-05T16:34:29.291Z,14.77
2023-05-05T16:39:33.123Z,14.66
2023-05-05T16:44:35.830Z,14.56
2023-05-05T16:49:39.832Z,14.50
2023-05-05T16:54:43.446Z,14.41
2023-05-05T16:59:46.137Z,14.47
2023-05-05T17:04:50.218Z,14.49
2023-05-05T17:09:52.887Z,14.64
2023-05-05T17:14:55.544Z,14.67
2023-05-05T17:19:59.625Z,14.44
2023-05-05T17:25:02.374Z,14.18
2023-05-05T17:30:06.181Z,13.58
2023-05-05T17:35:11.159Z,13.68
2023-05-05T17:40:14.270Z,14.02
2023-05-05T17:45:17.090Z,14.15
2023-05-05T17:50:21.317Z,13.86
2023-05-05T17:55:24.071Z,13.51
2023-05-05T18:00:27.191Z,13.70
2023-05-05T18:05:31.861Z,13.78
2023-05-05T18:10:34.629Z,13.31
2023-05-05T18:15:37.395Z,13.35
2023-05-05T18:20:41.536Z,13.15
2023-05-05T18:25:44.291Z,12.88
2023-05-05T18:30:47.190Z,12.97
2023-05-05T18:35:51.940Z,12.91
2023-05-05T18:40:54.721Z,12.90
2023-05-05T18:45:57.566Z,13.00
2023-05-05T18:51:03.720Z,12.97
2023-05-05T18:56:06.562Z,12.91
2023-05-05T19:01:09.355Z,12.81
2023-05-05T19:06:13.486Z,12.92
2023-05-05T19:11:16.295Z,12.93
2023-05-05T19:16:19.502Z,12.89
2023-05-05T19:21:23.847Z,12.95
2023-05-05T19:26:26.885Z,12.95
2023-05-05T19:31:30.958Z,12.97
2023-05-05T19:36:35.699Z,12.99
2023-05-05T19:41:38.440Z,12.88
2023-05-05T19:46:41.321Z,12.74
2023-05-05T19:51:47.558Z,12.65
2023-05-05T19:56:50.355Z,12.49
2023-05-05T20:01:53.168Z,12.52
2023-05-05T20:06:57.338Z,12.29
2023-05-05T20:12:00.214Z,12.28
2023-05-05T20:17:03.031Z,12.28
2023-05-05T20:22:07.190Z,12.29
2023-05-05T20:27:10.036Z,12.20
2023-05-05T20:32:12.825Z,12.04
2023-05-05T20:37:17.043Z,11.99
2023-05-05T20:42:19.883Z,11.91
2023-05-05T20:47:22.719Z,11.85
2023-05-05T20:59:27.837Z,11.53
2023-05-05T21:04:30.624Z,11.22
2023-05-05T21:09:35.221Z,11.12
2023-05-05T21:14:43.971Z,11.20
2023-05-05T21:19:46.712Z,11.37
2023-05-05T21:24:49.458Z,11.45
2023-05-05T21:29:53.519Z,11.50
2023-05-05T21:34:56.193Z,11.39
2023-05-05T21:39:58.715Z,11.36
2023-05-05T21:45:02.928Z,11.15
2023-05-05T21:50:06.167Z,11.18
2023-05-05T21:55:10.875Z,11.38
2023-05-05T22:00:16.880Z,11.40
2023-05-05T22:05:19.889Z,11.26
2023-05-05T22:10:22.651Z,11.28
2023-05-05T22:15:32.665Z,11.23
2023-05-05T22:20:39.012Z,11.28
2023-05-05T22:25:41.756Z,10.92
2023-05-05T22:30:45.971Z,10.96
2023-05-05T22:35:48.865Z,11.06
2023-05-05T22:40:51.725Z,11.11
2023-05-05T22:45:55.851Z,11.23
2023-05-05T22:50:58.807Z,11.25
2023-05-05T22:56:01.643Z,11.42
2023-05-05T23:01:05.803Z,11.46
2023-05-05T23:06:08.701Z,11.62
2023-05-05T23:11:11.566Z,11.76
2023-05-05T23:16:15.748Z,11.72
2023-05-05T23:21:18.582Z,11.60
2023-05-05T23:26:21.384Z,11.62
2023-05-05T23:31:25.708Z,11.79
2023-05-05T23:36:29.037Z,11.81
2023-05-05T23:41:31.764Z,11.79
2023-05-05T23:46:36.024Z,11.64
2023-05-05T23:51:39.014Z,11.61
2023-05-05T23:56:42.626Z,11.60
